createdAt,value
2016-12-13T00:00:20.955Z,6.19
2016-12-13T00:01:21.641Z,6.05
2016-12-13T00:02:20.884Z,6.13
2016-12-13T00:03:20.875Z,6.11
2016-12-13T00:04:20.914Z,6.1
2016-12-13T00:05:20.884Z,6.03
2016-12-13T00:06:20.959Z,6.01
2016-12-13T00:07:20.977Z,6.01
2016-12-13T00:08:20.923Z,6.06
2016-12-13T00:09:20.926Z,5.92
2016-12-13T00:10:23.754Z,5.98
2016-12-13T00:11:21.007Z,5.81
2016-12-13T00:12:20.889Z,5.88
2016-12-13T00:13:20.932Z,5.83
2016-12-13T00:14:20.934Z,5.84
2016-12-13T00:15:20.912Z,5.81
2016-12-13T00:16:20.937Z,5.78
2016-12-13T00:17:20.915Z,5.65
2016-12-13T00:18:20.955Z,5.73
2016-12-13T00:19:20.875Z,5.69
2016-12-13T00:20:20.964Z,5.7
2016-12-13T00:21:21.057Z,5.63
2016-12-13T00:22:20.918Z,5.67
2016-12-13T00:23:20.891Z,5.52
2016-12-13T00:24:20.913Z,5.62
2016-12-13T00:25:21.114Z,5.62
2016-12-13T00:26:20.937Z,5.62
2016-12-13T00:27:20.993Z,5.58
2016-12-13T00:28:20.964Z,5.58
2016-12-13T00:29:20.910Z,5.52
2016-12-13T00:30:21.022Z,5.51
2016-12-13T00:31:21.050Z,5.52
2016-12-13T00:32:20.981Z,5.49
2016-12-13T00:33:20.886Z,5.48
2016-12-13T00:34:20.945Z,5.45
2016-12-13T00:35:21.138Z,5.49
2016-12-13T00:36:20.935Z,5.44
2016-12-13T00:37:22.211Z,5.45
2016-12-13T00:38:20.950Z,5.48
2016-12-13T00:39:21.110Z,5.42
2016-12-13T00:40:21.036Z,5.42
2016-12-13T00:41:20.925Z,5.41
2016-12-13T00:42:20.910Z,5.42
2016-12-13T00:43:20.964Z,5.44
2016-12-13T00:44:20.987Z,5.44
2016-12-13T00:45:21.124Z,5.4
2016-12-13T00:46:21.029Z,5.42
2016-12-13T00:47:21.071Z,5.4
2016-12-13T00:48:21.028Z,5.4
2016-12-13T00:49:20.999Z,5.29
2016-12-13T00:50:21.004Z,5.35
2016-12-13T00:51:21.011Z,5.27
2016-12-13T00:52:20.976Z,5.32
2016-12-13T00:53:21.121Z,5.24
2016-12-13T00:54:20.923Z,5.29
2016-12-13T00:55:21.092Z,5.32
2016-12-13T00:56:20.995Z,5.27
2016-12-13T00:57:21.180Z,5.24
2016-12-13T00:58:20.934Z,5.23
2016-12-13T00:59:21.183Z,5.27
2016-12-13T01:00:21.036Z,5.17
2016-12-13T01:01:21.149Z,5.32
2016-12-13T01:02:20.958Z,5.2
2016-12-13T01:03:20.997Z,5.24
2016-12-13T01:04:20.935Z,5.14
2016-12-13T01:05:21.178Z,5.2
2016-12-13T01:06:20.956Z,5.24
2016-12-13T01:07:21.021Z,5.2
2016-12-13T01:08:20.996Z,5.24
2016-12-13T01:09:21.000Z,5.26
2016-12-13T01:10:21.094Z,5.22
2016-12-13T01:11:21.217Z,5.22
2016-12-13T01:12:21.007Z,5.17
2016-12-13T01:13:20.992Z,5.11
2016-12-13T01:14:21.004Z,5.15
2016-12-13T01:15:21.121Z,5.24
2016-12-13T01:16:21.059Z,5.2
2016-12-13T01:17:20.975Z,5.19
2016-12-13T01:18:20.969Z,5.2
2016-12-13T01:19:21.022Z,5.19
2016-12-13T01:20:21.048Z,5.14
2016-12-13T01:21:21.124Z,5.05
2016-12-13T01:22:21.039Z,5.11
2016-12-13T01:23:20.918Z,5.14
2016-12-13T01:24:20.977Z,5.12
2016-12-13T01:25:21.095Z,5.09
2016-12-13T01:26:20.964Z,5.08
2016-12-13T01:27:21.005Z,5.08
2016-12-13T01:28:21.045Z,5.08
2016-12-13T01:29:21.080Z,5.08
2016-12-13T01:30:21.000Z,5.09
2016-12-13T01:31:20.926Z,5.01
2016-12-13T01:32:21.043Z,5.09
2016-12-13T01:33:21.310Z,5.09
2016-12-13T01:34:20.985Z,5.08
2016-12-13T01:35:21.071Z,5.01
2016-12-13T01:36:21.002Z,5.01
2016-12-13T01:37:20.991Z,5.01
2016-12-13T01:38:21.071Z,5.02
2016-12-13T01:39:20.964Z,4.99
2016-12-13T01:40:21.065Z,4.93
2016-12-13T01:41:21.580Z,4.94
2016-12-13T01:42:21.060Z,5.04
2016-12-13T01:43:21.390Z,5.08
2016-12-13T01:44:21.056Z,5.04
2016-12-13T01:45:21.171Z,5.04
2016-12-13T01:46:21.060Z,5.02
2016-12-13T01:47:21.021Z,5.02
2016-12-13T01:48:21.013Z,5.02
2016-12-13T01:49:20.994Z,4.99
2016-12-13T01:50:21.089Z,4.91
2016-12-13T01:51:21.007Z,5.01
2016-12-13T01:52:20.970Z,4.93
2016-12-13T01:53:21.111Z,5.04
2016-12-13T01:54:21.017Z,5.01
2016-12-13T01:55:21.036Z,4.96
2016-12-13T01:56:21.063Z,4.99
2016-12-13T01:57:21.014Z,4.93
2016-12-13T01:58:21.111Z,5.01
2016-12-13T01:59:21.020Z,4.97
2016-12-13T02:00:21.135Z,4.94
2016-12-13T02:01:21.027Z,4.94
2016-12-13T02:02:21.056Z,4.9
2016-12-13T02:03:20.975Z,4.99
2016-12-13T02:04:21.106Z,4.91
2016-12-13T02:05:21.046Z,4.94
2016-12-13T02:06:21.061Z,4.91
2016-12-13T02:07:21.064Z,4.96
2016-12-13T02:08:21.017Z,4.99
2016-12-13T02:09:21.004Z,4.91
2016-12-13T02:10:21.092Z,4.94
2016-12-13T02:11:21.011Z,5.02
2016-12-13T02:12:21.026Z,4.96
2016-12-13T02:13:21.025Z,4.97
2016-12-13T02:14:21.096Z,4.88
2016-12-13T02:15:21.014Z,4.94
2016-12-13T02:16:21.131Z,4.91
2016-12-13T02:17:20.992Z,4.94
2016-12-13T02:18:21.134Z,4.88
2016-12-13T02:19:21.075Z,4.87
2016-12-13T02:20:21.066Z,4.96
2016-12-13T02:21:20.987Z,4.93
2016-12-13T02:22:21.058Z,5.01
2016-12-13T02:23:21.021Z,5.04
2016-12-13T02:24:20.997Z,5.01
2016-12-13T02:25:21.046Z,5.02
2016-12-13T02:26:21.097Z,4.99
2016-12-13T02:27:21.257Z,4.9
2016-12-13T02:28:21.016Z,5.01
2016-12-13T02:29:21.057Z,5.04
2016-12-13T02:30:21.138Z,5.06
2016-12-13T02:31:21.024Z,5.09
2016-12-13T02:32:21.024Z,5.06
2016-12-13T02:33:21.026Z,5.08
2016-12-13T02:34:21.087Z,5.09
2016-12-13T02:35:21.244Z,5.15
2016-12-13T02:36:21.015Z,5.22
2016-12-13T02:37:21.069Z,5.12
2016-12-13T02:38:21.028Z,5.22
2016-12-13T02:39:21.067Z,5.26
2016-12-13T02:40:21.108Z,5.24
2016-12-13T02:41:21.074Z,5.33
2016-12-13T02:42:21.084Z,5.27
2016-12-13T02:43:21.598Z,5.22
2016-12-13T02:44:21.057Z,5.4
2016-12-13T02:45:21.106Z,5.33
2016-12-13T02:46:21.110Z,5.35
2016-12-13T02:47:21.087Z,5.37
2016-12-13T02:48:21.045Z,5.41
2016-12-13T02:49:21.048Z,5.4
2016-12-13T02:50:21.197Z,5.47
2016-12-13T02:51:21.044Z,5.41
2016-12-13T02:52:21.083Z,5.4
2016-12-13T02:53:21.066Z,5.38
2016-12-13T02:54:21.022Z,5.4
2016-12-13T02:55:21.149Z,5.52
2016-12-13T02:56:23.060Z,5.48
2016-12-13T02:57:21.000Z,5.45
2016-12-13T02:58:21.102Z,5.56
2016-12-13T02:59:21.076Z,5.52
2016-12-13T03:00:21.129Z,5.59
2016-12-13T03:01:21.072Z,5.7
2016-12-13T03:02:21.130Z,5.63
2016-12-13T03:03:21.047Z,5.67
2016-12-13T03:04:21.064Z,5.69
2016-12-13T03:05:21.093Z,5.73
2016-12-13T03:06:21.094Z,5.75
2016-12-13T03:07:21.085Z,5.7
2016-12-13T03:08:21.087Z,5.77
2016-12-13T03:09:21.064Z,5.87
2016-12-13T03:10:21.175Z,5.83
2016-12-13T03:11:21.125Z,5.92
2016-12-13T03:12:21.147Z,5.77
2016-12-13T03:13:21.067Z,5.9
2016-12-13T03:14:21.134Z,5.84
2016-12-13T03:15:21.084Z,5.84
2016-12-13T03:16:21.108Z,5.87
2016-12-13T03:17:21.112Z,5.92
2016-12-13T03:18:21.168Z,5.92
2016-12-13T03:19:21.071Z,5.99
2016-12-13T03:20:21.136Z,6.01
2016-12-13T03:21:21.083Z,6.03
2016-12-13T03:22:21.148Z,6.02
2016-12-13T03:23:21.033Z,6.02
2016-12-13T03:24:21.125Z,6.03
2016-12-13T03:25:21.749Z,6.01
2016-12-13T03:26:21.103Z,6.02
2016-12-13T03:27:21.140Z,6.06
2016-12-13T03:28:21.094Z,6.08
2016-12-13T03:29:21.078Z,6.11
2016-12-13T03:30:21.048Z,6.13
2016-12-13T03:31:21.077Z,6.1
2016-12-13T03:32:21.124Z,6.11
2016-12-13T03:33:21.309Z,6.06
2016-12-13T03:34:21.109Z,6.16
2016-12-13T03:35:21.134Z,6.16
2016-12-13T03:36:21.117Z,6.17
2016-12-13T03:37:21.091Z,6.21
2016-12-13T03:38:21.150Z,6.11
2016-12-13T03:39:21.147Z,6.24
2016-12-13T03:40:21.135Z,6.2
2016-12-13T03:41:21.146Z,6.21
2016-12-13T03:42:21.173Z,6.17
2016-12-13T03:43:21.086Z,6.27
2016-12-13T03:44:21.194Z,6.2
2016-12-13T03:45:21.115Z,6.3
2016-12-13T03:46:21.108Z,6.27
2016-12-13T03:47:21.140Z,6.32
2016-12-13T03:48:21.155Z,6.27
2016-12-13T03:49:21.140Z,6.33
2016-12-13T03:50:21.165Z,6.28
2016-12-13T03:51:21.147Z,6.35
2016-12-13T03:52:21.146Z,6.35
2016-12-13T03:53:21.087Z,6.3
2016-12-13T03:57:49.019Z,6.32
2016-12-13T03:58:49.081Z,6.33
2016-12-13T03:59:48.950Z,6.42
2016-12-13T04:00:49.108Z,6.33
2016-12-13T04:01:48.969Z,6.3
2016-12-13T04:02:48.917Z,6.32
2016-12-13T04:03:48.954Z,6.32
2016-12-13T04:04:48.910Z,6.38
2016-12-13T04:05:48.958Z,6.3
2016-12-13T04:06:48.920Z,6.38
2016-12-13T04:07:50.117Z,6.38
2016-12-13T04:08:49.008Z,6.38
2016-12-13T04:09:48.902Z,6.4
2016-12-13T04:10:48.932Z,6.36
2016-12-13T04:11:48.906Z,6.27
2016-12-13T04:12:48.955Z,6.43
2016-12-13T04:13:48.895Z,6.43
2016-12-13T04:14:49.071Z,6.35
2016-12-13T04:15:48.959Z,6.27
2016-12-13T04:16:48.956Z,6.42
2016-12-13T04:17:48.996Z,6.39
2016-12-13T04:18:48.889Z,6.43
2016-12-13T04:19:48.984Z,6.3
2016-12-13T04:20:48.953Z,6.42
2016-12-13T04:21:48.949Z,6.45
2016-12-13T04:22:49.050Z,6.51
2016-12-13T04:23:48.981Z,6.43
2016-12-13T04:24:48.976Z,6.42
2016-12-13T04:25:49.006Z,6.45
2016-12-13T04:26:48.963Z,6.45
2016-12-13T04:27:49.023Z,6.51
2016-12-13T04:28:48.952Z,6.43
2016-12-13T04:29:49.001Z,6.4
2016-12-13T04:30:48.944Z,6.42
2016-12-13T04:31:49.014Z,6.46
2016-12-13T04:32:48.983Z,6.39
2016-12-13T04:33:49.062Z,6.45
2016-12-13T04:34:48.914Z,6.51
2016-12-13T04:35:48.963Z,6.51
2016-12-13T04:36:48.972Z,6.46
2016-12-13T04:37:49.005Z,6.55
2016-12-13T04:38:48.968Z,6.5
2016-12-13T04:39:49.009Z,6.5
2016-12-13T04:40:49.075Z,6.45
2016-12-13T04:41:48.936Z,6.48
2016-12-13T04:42:48.971Z,6.43
2016-12-13T04:43:48.994Z,6.46
2016-12-13T04:44:48.994Z,6.51
2016-12-13T04:45:48.960Z,6.43
2016-12-13T04:46:48.938Z,6.48
2016-12-13T04:47:49.005Z,6.51
2016-12-13T04:48:48.981Z,6.51
2016-12-13T04:49:48.946Z,6.5
2016-12-13T04:50:48.951Z,6.5
2016-12-13T04:52:23.881Z,6.5
2016-12-13T04:52:48.975Z,6.61
2016-12-13T04:53:49.014Z,6.5
2016-12-13T04:54:48.968Z,6.43
2016-12-13T04:55:49.026Z,6.43
2016-12-13T04:56:48.974Z,6.46
2016-12-13T04:57:49.018Z,6.54
2016-12-13T04:58:48.945Z,6.48
2016-12-13T04:59:48.970Z,6.51
2016-12-13T05:00:48.979Z,6.55
2016-12-13T05:01:49.025Z,6.53
2016-12-13T05:02:49.664Z,6.61
2016-12-13T05:03:49.035Z,6.6
2016-12-13T05:04:49.206Z,6.51
2016-12-13T05:05:49.015Z,6.58
2016-12-13T05:06:48.973Z,6.54
2016-12-13T05:07:49.034Z,6.48
2016-12-13T05:08:48.979Z,6.55
2016-12-13T05:09:49.013Z,6.58
2016-12-13T05:10:48.974Z,6.57
2016-12-13T05:11:49.011Z,6.51
2016-12-13T05:12:48.989Z,6.57
2016-12-13T05:13:49.049Z,6.48
2016-12-13T05:14:49.063Z,6.5
2016-12-13T05:15:49.000Z,6.6
2016-12-13T05:16:49.013Z,6.64
2016-12-13T05:17:49.010Z,6.46
2016-12-13T05:18:48.960Z,6.6
2016-12-13T05:19:48.979Z,6.63
2016-12-13T05:20:49.248Z,6.51
2016-12-13T05:21:49.054Z,6.58
2016-12-13T05:22:48.989Z,6.55
2016-12-13T05:23:49.046Z,6.57
2016-12-13T05:24:49.029Z,6.6
2016-12-13T05:25:49.054Z,6.69
2016-12-13T05:26:49.060Z,6.61
2016-12-13T05:27:49.023Z,6.64
2016-12-13T05:28:49.040Z,6.55
2016-12-13T05:29:49.015Z,6.6
2016-12-13T05:30:49.038Z,6.65
2016-12-13T05:31:49.004Z,6.61
2016-12-13T05:32:49.080Z,6.63
2016-12-13T05:33:49.038Z,6.65
2016-12-13T05:34:49.246Z,6.69
2016-12-13T05:35:49.006Z,6.6
2016-12-13T05:36:49.024Z,6.73
2016-12-13T05:37:49.039Z,6.64
2016-12-13T05:38:49.032Z,6.69
2016-12-13T05:39:49.025Z,6.72
2016-12-13T05:40:49.036Z,6.71
2016-12-13T05:41:49.056Z,6.64
2016-12-13T05:42:49.061Z,6.73
2016-12-13T05:43:49.026Z,6.73
2016-12-13T05:44:49.042Z,6.69
2016-12-13T05:45:49.072Z,6.64
2016-12-13T05:46:49.034Z,6.65
2016-12-13T05:47:49.095Z,6.68
2016-12-13T05:48:49.074Z,6.69
2016-12-13T05:49:49.094Z,6.81
2016-12-13T05:50:49.159Z,6.73
2016-12-13T05:51:49.042Z,6.71
2016-12-13T05:52:49.100Z,6.61
2016-12-13T05:53:49.065Z,6.61
2016-12-13T05:54:49.063Z,6.61
2016-12-13T05:55:49.083Z,6.71
2016-12-13T05:56:49.054Z,6.71
2016-12-13T05:57:49.057Z,6.64
2016-12-13T05:58:49.070Z,6.73
2016-12-13T05:59:50.344Z,6.61
2016-12-13T06:00:49.035Z,6.65
2016-12-13T06:01:49.100Z,6.71
2016-12-13T06:02:49.164Z,6.6
2016-12-13T06:03:49.075Z,6.68
2016-12-13T06:04:49.049Z,6.65
2016-12-13T06:05:49.121Z,6.73
2016-12-13T06:06:49.061Z,6.76
2016-12-13T06:07:49.104Z,6.69
2016-12-13T06:08:49.064Z,6.71
2016-12-13T06:09:49.078Z,6.72
2016-12-13T06:10:49.116Z,6.69
2016-12-13T06:11:49.085Z,6.65
2016-12-13T06:12:49.188Z,6.73
2016-12-13T06:13:49.070Z,6.73
2016-12-13T06:14:49.073Z,6.78
2016-12-13T06:15:49.094Z,6.72
2016-12-13T06:16:49.542Z,6.69
2016-12-13T06:17:49.745Z,6.65
2016-12-13T06:18:49.559Z,6.64
2016-12-13T06:19:49.178Z,6.64
2016-12-13T06:20:51.003Z,6.63
2016-12-13T06:21:49.878Z,6.76
2016-12-13T06:22:49.161Z,6.75
2016-12-13T06:23:52.463Z,6.65
2016-12-13T06:24:49.127Z,6.78
2016-12-13T06:25:49.152Z,6.75
2016-12-13T06:26:50.119Z,6.72
2016-12-13T06:27:49.115Z,6.69
2016-12-13T06:28:49.173Z,6.69
2016-12-13T06:29:49.769Z,6.72
2016-12-13T06:30:49.222Z,6.72
2016-12-13T06:31:49.093Z,6.78
2016-12-13T06:32:49.199Z,6.72
2016-12-13T06:33:49.250Z,6.71
2016-12-13T06:34:49.177Z,6.72
2016-12-13T06:35:49.131Z,6.69
2016-12-13T06:36:49.143Z,6.69
2016-12-13T06:37:49.181Z,6.69
2016-12-13T06:38:49.238Z,6.69
2016-12-13T06:39:49.205Z,6.75
2016-12-13T06:40:49.215Z,6.76
2016-12-13T06:41:49.148Z,6.78
2016-12-13T06:42:49.160Z,6.71
2016-12-13T06:43:49.136Z,6.71
2016-12-13T06:44:49.102Z,6.75
2016-12-13T06:45:49.083Z,6.73
2016-12-13T06:46:49.133Z,6.79
2016-12-13T06:47:49.213Z,6.75
2016-12-13T06:48:49.120Z,6.72
2016-12-13T06:49:49.106Z,6.78
2016-12-13T06:50:49.129Z,6.75
2016-12-13T06:51:49.166Z,6.71
2016-12-13T06:52:49.193Z,6.78
2016-12-13T06:53:49.143Z,6.69
2016-12-13T06:54:49.122Z,6.68
2016-12-13T06:55:49.135Z,6.73
2016-12-13T06:56:49.217Z,6.71
2016-12-13T06:57:49.235Z,6.72
2016-12-13T06:58:49.215Z,6.71
2016-12-13T06:59:49.134Z,6.71
2016-12-13T07:00:49.112Z,6.71
2016-12-13T07:01:49.162Z,6.71
2016-12-13T07:02:49.284Z,6.71
2016-12-13T07:03:49.164Z,6.73
2016-12-13T07:04:49.308Z,6.71
2016-12-13T07:05:49.165Z,6.69
2016-12-13T07:06:49.346Z,6.72
2016-12-13T07:07:49.835Z,6.69
2016-12-13T07:08:49.373Z,6.78
2016-12-13T07:09:49.110Z,6.76
2016-12-13T07:10:49.113Z,6.75
2016-12-13T07:11:49.234Z,6.63
2016-12-13T07:12:49.309Z,6.72
2016-12-13T07:13:49.157Z,6.73
2016-12-13T07:14:49.202Z,6.75
2016-12-13T07:15:49.128Z,6.75
2016-12-13T07:16:49.363Z,6.76
2016-12-13T07:17:49.172Z,6.76
2016-12-13T07:18:49.357Z,6.83
2016-12-13T07:19:49.217Z,6.81
2016-12-13T07:20:49.289Z,6.79
2016-12-13T07:21:49.165Z,6.83
2016-12-13T07:22:49.184Z,6.73
2016-12-13T07:23:49.145Z,6.76
2016-12-13T07:24:49.307Z,6.83
2016-12-13T07:25:49.166Z,6.73
2016-12-13T07:26:49.301Z,6.81
2016-12-13T07:27:49.315Z,6.76
2016-12-13T07:28:49.357Z,6.83
2016-12-13T07:29:49.197Z,6.82
2016-12-13T07:30:49.289Z,6.81
2016-12-13T07:31:49.167Z,6.79
2016-12-13T07:32:49.346Z,6.82
2016-12-13T07:33:49.186Z,6.82
2016-12-13T07:34:49.298Z,6.81
2016-12-13T07:35:49.415Z,6.78
2016-12-13T07:36:49.199Z,6.82
2016-12-13T07:37:49.207Z,6.79
2016-12-13T07:38:49.373Z,6.82
2016-12-13T07:39:49.204Z,6.76
2016-12-13T07:40:49.223Z,6.83
2016-12-13T07:41:49.198Z,6.78
2016-12-13T07:42:49.334Z,6.83
2016-12-13T07:43:49.203Z,6.79
2016-12-13T07:44:49.180Z,6.87
2016-12-13T07:45:49.182Z,6.73
2016-12-13T07:46:49.347Z,6.69
2016-12-13T07:47:49.237Z,6.73
2016-12-13T07:48:49.244Z,6.72
2016-12-13T07:49:49.227Z,6.72
2016-12-13T07:50:49.192Z,6.69
2016-12-13T07:51:49.183Z,6.63
2016-12-13T07:52:49.470Z,6.71
2016-12-13T07:53:49.195Z,6.69
2016-12-13T07:54:49.451Z,6.75
2016-12-13T07:55:49.476Z,6.72
2016-12-13T07:56:49.431Z,6.63
2016-12-13T07:57:49.290Z,6.6
2016-12-13T07:58:49.257Z,6.64
2016-12-13T07:59:49.235Z,6.58
2016-12-13T08:00:49.294Z,6.55
2016-12-13T08:01:49.236Z,6.48
2016-12-13T08:02:49.368Z,6.63
2016-12-13T08:03:49.263Z,6.61
2016-12-13T08:04:49.238Z,6.58
2016-12-13T08:05:49.211Z,6.46
2016-12-13T08:06:49.274Z,6.55
2016-12-13T08:07:49.263Z,6.5
2016-12-13T08:08:49.366Z,6.55
2016-12-13T08:09:49.232Z,6.48
2016-12-13T08:10:49.349Z,6.53
2016-12-13T08:11:49.244Z,6.51
2016-12-13T08:12:49.246Z,6.51
2016-12-13T08:13:49.213Z,6.53
2016-12-13T08:14:49.254Z,6.53
2016-12-13T08:15:49.185Z,6.48
2016-12-13T08:16:49.337Z,6.51
2016-12-13T08:17:49.278Z,6.46
2016-12-13T08:18:49.209Z,6.53
2016-12-13T08:19:49.202Z,6.51
2016-12-13T08:20:49.354Z,6.51
2016-12-13T08:21:49.223Z,6.51
2016-12-13T08:22:49.295Z,6.51
2016-12-13T08:23:49.294Z,6.51
2016-12-13T08:24:49.373Z,6.5
2016-12-13T08:25:49.289Z,6.51
2016-12-13T08:26:49.311Z,6.58
2016-12-13T08:27:49.293Z,6.6
2016-12-13T08:28:49.333Z,6.54
2016-12-13T08:29:49.264Z,6.51
2016-12-13T08:30:49.243Z,6.48
2016-12-13T08:31:49.294Z,6.51
2016-12-13T08:32:49.353Z,6.51
2016-12-13T08:33:49.303Z,6.48
2016-12-13T08:34:49.456Z,6.48
2016-12-13T08:35:49.226Z,6.48
2016-12-13T08:36:49.395Z,6.53
2016-12-13T08:37:49.262Z,6.45
2016-12-13T08:38:49.264Z,6.54
2016-12-13T08:39:49.329Z,6.54
2016-12-13T08:40:49.444Z,6.46
2016-12-13T08:41:49.336Z,6.57
2016-12-13T08:42:49.320Z,6.48
2016-12-13T08:43:49.254Z,6.57
2016-12-13T08:44:49.348Z,6.69
2016-12-13T08:45:49.273Z,6.46
2016-12-13T08:46:49.434Z,6.46
2016-12-13T08:47:49.338Z,6.46
2016-12-13T08:48:49.373Z,6.6
2016-12-13T08:49:49.261Z,6.54
2016-12-13T08:50:49.494Z,6.61
2016-12-13T08:51:49.262Z,6.54
2016-12-13T08:52:49.329Z,6.45
2016-12-13T08:53:49.280Z,6.53
2016-12-13T08:54:49.434Z,6.55
2016-12-13T08:55:49.275Z,6.54
2016-12-13T08:56:49.361Z,6.5
2016-12-13T08:57:49.342Z,6.42
2016-12-13T08:58:49.423Z,6.54
2016-12-13T08:59:49.354Z,6.43
2016-12-13T09:00:49.533Z,6.46
2016-12-13T09:01:49.376Z,6.5
2016-12-13T09:02:49.460Z,6.51
2016-12-13T09:03:49.295Z,6.48
2016-12-13T09:04:49.441Z,6.48
2016-12-13T09:05:49.286Z,6.46
2016-12-13T09:06:49.336Z,6.43
2016-12-13T09:07:49.366Z,6.43
2016-12-13T09:08:49.297Z,6.39
2016-12-13T09:09:49.320Z,6.4
2016-12-13T09:10:49.469Z,6.5
2016-12-13T09:11:49.343Z,6.42
2016-12-13T09:12:49.392Z,6.46
2016-12-13T09:13:49.325Z,6.43
2016-12-13T09:14:49.428Z,6.48
2016-12-13T09:15:49.317Z,6.55
2016-12-13T09:16:50.059Z,6.48
2016-12-13T09:17:49.331Z,6.46
2016-12-13T09:18:49.326Z,6.5
2016-12-13T09:19:49.325Z,6.53
2016-12-13T09:20:49.479Z,6.43
2016-12-13T09:21:49.295Z,6.46
2016-12-13T09:22:49.434Z,6.53
2016-12-13T09:23:49.331Z,6.46
2016-12-13T09:24:49.462Z,6.5
2016-12-13T09:25:49.306Z,6.53
2016-12-13T09:26:49.439Z,6.57
2016-12-13T09:27:49.524Z,6.5
2016-12-13T09:28:49.479Z,6.58
2016-12-13T09:29:50.053Z,6.5
2016-12-13T09:30:49.546Z,6.46
2016-12-13T09:31:49.293Z,6.48
2016-12-13T09:32:49.440Z,6.54
2016-12-13T09:33:49.315Z,6.53
2016-12-13T09:34:49.492Z,6.57
2016-12-13T09:35:49.412Z,6.54
2016-12-13T09:36:49.565Z,6.54
2016-12-13T09:37:49.452Z,6.58
2016-12-13T09:38:49.519Z,6.51
2016-12-13T09:39:49.535Z,6.63
2016-12-13T09:40:49.558Z,6.55
2016-12-13T09:41:49.382Z,6.58
2016-12-13T09:42:49.454Z,6.55
2016-12-13T09:43:49.411Z,6.69
2016-12-13T09:44:49.380Z,6.61
2016-12-13T09:45:50.354Z,6.58
2016-12-13T09:46:49.526Z,6.61
2016-12-13T09:47:49.345Z,6.63
2016-12-13T09:48:49.506Z,6.61
2016-12-13T09:49:49.325Z,6.71
2016-12-13T09:50:49.520Z,6.63
2016-12-13T09:51:49.377Z,6.63
2016-12-13T09:52:49.505Z,6.63
2016-12-13T09:53:49.364Z,6.69
2016-12-13T09:54:49.527Z,6.73
2016-12-13T09:56:19.492Z,6.83
2016-12-13T09:56:49.428Z,6.76
2016-12-13T09:57:49.417Z,6.81
2016-12-13T09:58:49.414Z,6.82
2016-12-13T09:59:50.031Z,6.96
2016-12-13T10:00:49.490Z,6.93
2016-12-13T10:01:49.384Z,7.09
2016-12-13T10:02:50.401Z,7.05
2016-12-13T10:03:49.688Z,7.05
2016-12-13T10:04:49.466Z,7.15
2016-12-13T10:05:49.413Z,7.18
2016-12-13T10:06:49.458Z,7.3
2016-12-13T10:07:49.405Z,7.34
2016-12-13T10:08:49.647Z,7.32
2016-12-13T10:09:49.398Z,7.37
2016-12-13T10:10:49.473Z,7.44
2016-12-13T10:11:49.399Z,7.41
2016-12-13T10:12:49.427Z,7.47
2016-12-13T10:13:49.400Z,7.39
2016-12-13T10:14:50.099Z,7.6
2016-12-13T10:15:49.381Z,7.62
2016-12-13T10:16:49.562Z,7.63
2016-12-13T10:17:49.377Z,7.6
2016-12-13T10:18:49.517Z,7.67
2016-12-13T10:19:49.413Z,7.57
2016-12-13T10:20:49.445Z,7.58
2016-12-13T10:21:49.351Z,7.55
2016-12-13T10:22:49.491Z,7.54
2016-12-13T10:23:49.397Z,7.51
2016-12-13T10:24:49.525Z,7.44
2016-12-13T10:25:49.395Z,7.45
2016-12-13T10:26:49.554Z,7.47
2016-12-13T10:27:49.458Z,7.52
2016-12-13T10:28:49.454Z,7.55
2016-12-13T10:29:49.399Z,7.57
2016-12-13T10:30:49.543Z,7.6
2016-12-13T10:31:49.372Z,7.52
2016-12-13T10:32:49.532Z,7.48
2016-12-13T10:33:49.415Z,7.58
2016-12-13T10:34:49.554Z,7.63
2016-12-13T10:35:49.613Z,7.69
2016-12-13T10:36:49.456Z,7.69
2016-12-13T10:37:49.469Z,7.7
2016-12-13T10:38:49.525Z,7.67
2016-12-13T10:39:49.407Z,7.73
2016-12-13T10:40:49.587Z,7.58
2016-12-13T10:41:49.876Z,7.67
2016-12-13T10:42:49.674Z,7.67
2016-12-13T10:43:49.463Z,7.74
2016-12-13T10:44:49.705Z,7.7
2016-12-13T10:45:49.423Z,7.76
2016-12-13T10:46:49.515Z,7.81
2016-12-13T10:47:49.454Z,7.77
2016-12-13T10:48:49.433Z,7.82
2016-12-13T10:49:49.435Z,7.85
2016-12-13T10:50:49.503Z,7.77
2016-12-13T10:51:49.456Z,7.88
2016-12-13T10:52:49.619Z,7.76
2016-12-13T10:53:49.580Z,7.73
2016-12-13T10:54:49.488Z,7.76
2016-12-13T10:55:49.427Z,7.69
2016-12-13T10:56:49.532Z,7.77
2016-12-13T10:57:49.494Z,7.74
2016-12-13T10:58:49.516Z,7.63
2016-12-13T10:59:49.497Z,7.62
2016-12-13T11:00:49.625Z,7.74
2016-12-13T11:01:49.822Z,7.66
2016-12-13T11:02:49.705Z,7.6
2016-12-13T11:03:49.607Z,7.69
2016-12-13T11:04:49.580Z,7.6
2016-12-13T11:05:49.612Z,7.62
2016-12-13T11:06:49.616Z,7.62
2016-12-13T11:07:49.696Z,7.67
2016-12-13T11:08:49.536Z,7.71
2016-12-13T11:09:49.460Z,7.71
2016-12-13T11:10:49.595Z,7.69
2016-12-13T11:11:49.486Z,7.74
2016-12-13T11:12:49.556Z,7.74
2016-12-13T11:13:49.569Z,7.77
2016-12-13T11:14:49.579Z,7.77
2016-12-13T11:15:49.611Z,7.86
2016-12-13T11:16:49.545Z,7.94
2016-12-13T11:17:49.556Z,7.81
2016-12-13T11:18:49.528Z,7.84
2016-12-13T11:19:49.550Z,7.79
2016-12-13T11:20:49.687Z,7.82
2016-12-13T11:21:49.537Z,7.82
2016-12-13T11:22:49.609Z,7.84
2016-12-13T11:24:54.287Z,7.81
2016-12-13T11:25:05.968Z,7.74
2016-12-13T11:26:05.777Z,7.88
2016-12-13T11:27:05.624Z,7.89
2016-12-13T11:28:05.614Z,7.88
2016-12-13T11:29:05.736Z,7.82
2016-12-13T11:30:05.576Z,7.84
2016-12-13T11:31:05.663Z,7.81
2016-12-13T11:32:05.651Z,7.88
2016-12-13T11:33:05.730Z,7.92
2016-12-13T11:34:05.529Z,7.84
2016-12-13T11:35:05.650Z,7.91
2016-12-13T11:36:05.597Z,7.94
2016-12-13T11:37:05.595Z,7.92
2016-12-13T11:38:05.742Z,7.96
2016-12-13T11:39:05.533Z,8.04
2016-12-13T11:40:05.706Z,8.06
2016-12-13T11:41:05.643Z,8.03
2016-12-13T11:42:05.722Z,8.07
2016-12-13T11:43:05.662Z,8.21
2016-12-13T11:44:05.715Z,8.1
2016-12-13T11:45:05.562Z,8.1
2016-12-13T11:46:05.667Z,8.06
2016-12-13T11:47:05.612Z,8.22
2016-12-13T11:48:05.617Z,8.2
2016-12-13T11:49:05.603Z,8.25
2016-12-13T11:50:05.661Z,8.25
2016-12-13T11:51:05.596Z,8.24
2016-12-13T11:52:05.695Z,8.25
2016-12-13T11:53:05.570Z,8.25
2016-12-13T11:54:05.658Z,8.31
2016-12-13T11:55:05.606Z,8.43
2016-12-13T11:56:05.597Z,8.31
2016-12-13T11:57:06.298Z,8.37
2016-12-13T11:58:05.753Z,8.42
2016-12-13T11:59:05.735Z,8.47
2016-12-13T12:00:05.736Z,8.46
2016-12-13T12:01:05.582Z,8.37
2016-12-13T12:02:05.734Z,8.47
2016-12-13T12:03:05.659Z,8.37
2016-12-13T12:04:05.635Z,8.34
2016-12-13T12:05:05.800Z,8.34
2016-12-13T12:06:05.621Z,8.22
2016-12-13T12:07:05.892Z,8.34
2016-12-13T12:08:05.655Z,8.22
2016-12-13T12:09:05.631Z,8.2
2016-12-13T12:10:05.678Z,8.25
2016-12-13T12:11:05.717Z,8.28
2016-12-13T12:12:05.769Z,8.4
2016-12-13T12:13:05.734Z,8.36
2016-12-13T12:14:05.627Z,8.49
2016-12-13T12:15:05.780Z,8.47
2016-12-13T12:16:05.820Z,8.43
2016-12-13T12:17:05.773Z,8.49
2016-12-13T12:18:05.804Z,8.45
2016-12-13T12:19:05.653Z,8.42
2016-12-13T12:20:05.830Z,8.46
2016-12-13T12:21:05.751Z,8.45
2016-12-13T12:22:05.797Z,8.47
2016-12-13T12:23:05.813Z,8.43
2016-12-13T12:24:05.773Z,8.31
2016-12-13T12:25:05.681Z,8.39
2016-12-13T12:26:05.773Z,8.34
2016-12-13T12:27:06.003Z,8.45
2016-12-13T12:28:05.787Z,8.43
2016-12-13T12:29:05.813Z,8.45
2016-12-13T12:30:05.800Z,8.58
2016-12-13T12:31:05.783Z,8.49
2016-12-13T12:32:05.771Z,8.43
2016-12-13T12:33:05.678Z,8.42
2016-12-13T12:34:05.820Z,8.5
2016-12-13T12:35:06.183Z,8.45
2016-12-13T12:36:05.798Z,8.52
2016-12-13T12:37:05.819Z,8.55
2016-12-13T12:38:05.870Z,8.58
2016-12-13T12:39:05.827Z,8.54
2016-12-13T12:40:05.666Z,8.63
2016-12-13T12:41:05.824Z,8.61
2016-12-13T12:42:05.786Z,8.6
2016-12-13T12:43:05.672Z,8.63
2016-12-13T12:44:05.688Z,8.57
2016-12-13T12:45:05.805Z,8.57
2016-12-13T12:46:05.720Z,8.57
2016-12-13T12:47:05.713Z,8.49
2016-12-13T12:48:05.838Z,8.58
2016-12-13T12:49:05.688Z,8.54
2016-12-13T12:50:05.861Z,8.45
2016-12-13T12:51:05.790Z,8.55
2016-12-13T12:52:06.549Z,8.42
2016-12-13T12:53:05.756Z,8.55
2016-12-13T12:54:05.762Z,8.49
2016-12-13T12:55:05.876Z,8.6
2016-12-13T12:56:05.864Z,8.55
2016-12-13T12:57:06.073Z,8.55
2016-12-13T12:58:05.964Z,8.54
2016-12-13T12:59:07.100Z,8.61
2016-12-13T13:00:05.731Z,8.64
2016-12-13T13:01:05.774Z,8.63
2016-12-13T13:02:05.817Z,8.61
2016-12-13T13:03:05.914Z,8.57
2016-12-13T13:04:05.888Z,8.61
2016-12-13T13:05:05.846Z,8.54
2016-12-13T13:06:05.858Z,8.58
2016-12-13T13:07:05.942Z,8.39
2016-12-13T13:08:05.846Z,8.54
2016-12-13T13:09:05.813Z,8.55
2016-12-13T13:10:05.872Z,8.54
2016-12-13T13:11:05.827Z,8.5
2016-12-13T13:12:05.704Z,8.65
2016-12-13T13:13:05.858Z,8.55
2016-12-13T13:14:05.731Z,8.6
2016-12-13T13:15:05.843Z,8.58
2016-12-13T13:16:05.858Z,8.54
2016-12-13T13:17:05.874Z,8.58
2016-12-13T13:18:06.012Z,8.68
2016-12-13T13:19:05.853Z,8.6
2016-12-13T13:20:05.746Z,8.54
2016-12-13T13:21:05.720Z,8.58
2016-12-13T13:22:06.058Z,8.6
2016-12-13T13:23:06.216Z,8.5
2016-12-13T13:24:05.881Z,8.54
2016-12-13T13:25:05.807Z,8.57